sensor_id;sensor_type;location;lat;lon;timestamp;temperature;humidity
52575;DHT22;38468;48.114;-1.684;2023-09-12T00:00:27;20.60;77.00
52575;DHT22;38468;48.114;-1.684;2023-09-12T00:02:28;20.60;76.80
52575;DHT22;38468;48.114;-1.684;2023-09-12T00:04:29;20.60;76.90
52575;DHT22;38468;48.114;-1.684;2023-09-12T00:06:30;20.50;77.50
52575;DHT22;38468;48.114;-1.684;2023-09-12T00:08:30;20.50;77.50
52575;DHT22;38468;48.114;-1.684;2023-09-12T00:10:31;20.60;77.10
52575;DHT22;38468;48.114;-1.684;2023-09-12T00:12:32;20.60;76.60
52575;DHT22;38468;48.114;-1.684;2023-09-12T00:14:32;20.60;76.60
52575;DHT22;38468;48.114;-1.684;2023-09-12T00:16:36;20.60;76.90
52575;DHT22;38468;48.114;-1.684;2023-09-12T00:18:38;20.60;76.80
52575;DHT22;38468;48.114;-1.684;2023-09-12T00:20:38;20.50;77.20
52575;DHT22;38468;48.114;-1.684;2023-09-12T00:22:39;20.40;77.80
52575;DHT22;38468;48.114;-1.684;2023-09-12T00:24:40;20.50;77.40
52575;DHT22;38468;48.114;-1.684;2023-09-12T00:26:40;20.40;77.70
52575;DHT22;38468;48.114;-1.684;2023-09-12T00:28:41;20.50;77.60
52575;DHT22;38468;48.114;-1.684;2023-09-12T00:30:41;20.50;77.70
52575;DHT22;38468;48.114;-1.684;2023-09-12T00:32:42;20.40;77.90
52575;DHT22;38468;48.114;-1.684;2023-09-12T00:34:43;20.50;77.60
52575;DHT22;38468;48.114;-1.684;2023-09-12T00:36:44;20.40;77.90
52575;DHT22;38468;48.114;-1.684;2023-09-12T00:38:44;20.50;77.60
52575;DHT22;38468;48.114;-1.684;2023-09-12T00:40:45;20.40;78.10
52575;DHT22;38468;48.114;-1.684;2023-09-12T00:42:45;20.40;78.20
52575;DHT22;38468;48.114;-1.684;2023-09-12T00:44:46;20.30;78.40
52575;DHT22;38468;48.114;-1.684;2023-09-12T00:46:48;20.30;78.30
52575;DHT22;38468;48.114;-1.684;2023-09-12T00:48:50;20.30;78.50
52575;DHT22;38468;48.114;-1.684;2023-09-12T00:50:52;20.30;78.40
52575;DHT22;38468;48.114;-1.684;2023-09-12T00:52:54;20.30;78.40
52575;DHT22;38468;48.114;-1.684;2023-09-12T00:54:55;20.40;78.20
52575;DHT22;38468;48.114;-1.684;2023-09-12T00:56:56;20.40;78.10
52575;DHT22;38468;48.114;-1.684;2023-09-12T00:58:57;20.50;77.80
52575;DHT22;38468;48.114;-1.684;2023-09-12T01:00:58;20.40;77.80
52575;DHT22;38468;48.114;-1.684;2023-09-12T01:02:59;20.40;77.80
52575;DHT22;38468;48.114;-1.684;2023-09-12T01:05:00;20.40;78.10
52575;DHT22;38468;48.114;-1.684;2023-09-12T01:07:02;20.30;78.30
52575;DHT22;38468;48.114;-1.684;2023-09-12T01:09:03;20.30;78.40
52575;DHT22;38468;48.114;-1.684;2023-09-12T01:11:04;20.40;77.70
52575;DHT22;38468;48.114;-1.684;2023-09-12T01:13:05;20.30;78.00
52575;DHT22;38468;48.114;-1.684;2023-09-12T01:15:06;20.40;77.90
52575;DHT22;38468;48.114;-1.684;2023-09-12T01:17:13;20.30;78.20
52575;DHT22;38468;48.114;-1.684;2023-09-12T01:19:14;20.40;78.30
52575;DHT22;38468;48.114;-1.684;2023-09-12T01:28:24;20.10;78.80
52575;DHT22;38468;48.114;-1.684;2023-09-12T01:30:30;20.20;78.80
52575;DHT22;38468;48.114;-1.684;2023-09-12T01:32:33;20.30;78.30
52575;DHT22;38468;48.114;-1.684;2023-09-12T01:34:35;20.10;79.00
52575;DHT22;38468;48.114;-1.684;2023-09-12T01:36:35;20.10;79.10
52575;DHT22;38468;48.114;-1.684;2023-09-12T01:38:36;20.10;79.00
52575;DHT22;38468;48.114;-1.684;2023-09-12T01:40:48;20.20;78.80
52575;DHT22;38468;48.114;-1.684;2023-09-12T01:42:52;20.20;78.70
52575;DHT22;38468;48.114;-1.684;2023-09-12T01:44:56;20.10;78.80
52575;DHT22;38468;48.114;-1.684;2023-09-12T01:47:03;20.00;79.00
52575;DHT22;38468;48.114;-1.684;2023-09-12T01:49:05;20.10;79.00
52575;DHT22;38468;48.114;-1.684;2023-09-12T01:51:06;20.00;79.50
52575;DHT22;38468;48.114;-1.684;2023-09-12T01:53:07;20.00;79.50
52575;DHT22;38468;48.114;-1.684;2023-09-12T01:55:09;20.00;79.60
52575;DHT22;38468;48.114;-1.684;2023-09-12T01:57:10;20.00;79.00
52575;DHT22;38468;48.114;-1.684;2023-09-12T01:59:11;20.00;79.30
52575;DHT22;38468;48.114;-1.684;2023-09-12T02:01:12;20.00;79.00
52575;DHT22;38468;48.114;-1.684;2023-09-12T02:03:13;20.00;79.10
52575;DHT22;38468;48.114;-1.684;2023-09-12T02:05:22;20.00;79.00
52575;DHT22;38468;48.114;-1.684;2023-09-12T02:07:23;20.10;78.80
52575;DHT22;38468;48.114;-1.684;2023-09-12T02:09:24;20.00;79.30
52575;DHT22;38468;48.114;-1.684;2023-09-12T02:11:26;20.00;79.60
52575;DHT22;38468;48.114;-1.684;2023-09-12T02:13:27;20.00;79.40
52575;DHT22;38468;48.114;-1.684;2023-09-12T02:15:28;20.00;79.50
52575;DHT22;38468;48.114;-1.684;2023-09-12T02:17:28;20.00;79.40
52575;DHT22;38468;48.114;-1.684;2023-09-12T02:19:29;20.00;79.70
52575;DHT22;38468;48.114;-1.684;2023-09-12T02:21:30;20.00;79.20
52575;DHT22;38468;48.114;-1.684;2023-09-12T02:23:30;20.00;78.90
52575;DHT22;38468;48.114;-1.684;2023-09-12T02:25:31;20.00;79.20
52575;DHT22;38468;48.114;-1.684;2023-09-12T02:27:31;20.00;79.50
52575;DHT22;38468;48.114;-1.684;2023-09-12T02:29:32;20.00;79.30
52575;DHT22;38468;48.114;-1.684;2023-09-12T02:31:33;20.10;79.10
52575;DHT22;38468;48.114;-1.684;2023-09-12T02:33:33;20.10;79.00
52575;DHT22;38468;48.114;-1.684;2023-09-12T02:35:34;20.00;79.30
52575;DHT22;38468;48.114;-1.684;2023-09-12T02:37:34;19.90;79.80
52575;DHT22;38468;48.114;-1.684;2023-09-12T02:39:35;19.90;80.00
52575;DHT22;38468;48.114;-1.684;2023-09-12T02:41:36;19.90;79.90
52575;DHT22;38468;48.114;-1.684;2023-09-12T02:43:36;19.90;79.90
52575;DHT22;38468;48.114;-1.684;2023-09-12T02:45:37;19.90;80.00
52575;DHT22;38468;48.114;-1.684;2023-09-12T02:47:38;19.90;80.00
52575;DHT22;38468;48.114;-1.684;2023-09-12T02:49:38;20.00;79.60
52575;DHT22;38468;48.114;-1.684;2023-09-12T02:51:39;20.10;79.10
52575;DHT22;38468;48.114;-1.684;2023-09-12T02:53:40;20.00;79.10
52575;DHT22;38468;48.114;-1.684;2023-09-12T02:55:42;20.00;79.40
52575;DHT22;38468;48.114;-1.684;2023-09-12T02:57:43;20.00;79.40
52575;DHT22;38468;48.114;-1.684;2023-09-12T02:59:44;20.00;79.30
52575;DHT22;38468;48.114;-1.684;2023-09-12T03:01:44;20.00;79.30
52575;DHT22;38468;48.114;-1.684;2023-09-12T03:03:49;20.00;79.60
52575;DHT22;38468;48.114;-1.684;2023-09-12T03:05:58;20.00;79.40
52575;DHT22;38468;48.114;-1.684;2023-09-12T03:07:59;20.10;79.20
52575;DHT22;38468;48.114;-1.684;2023-09-12T03:09:59;20.00;79.60
52575;DHT22;38468;48.114;-1.684;2023-09-12T03:12:01;20.00;79.70
52575;DHT22;38468;48.114;-1.684;2023-09-12T03:14:02;20.00;79.70
52575;DHT22;38468;48.114;-1.684;2023-09-12T03:16:03;20.00;79.60
52575;DHT22;38468;48.114;-1.684;2023-09-12T03:18:04;20.00;80.00
52575;DHT22;38468;48.114;-1.684;2023-09-12T03:20:05;19.90;80.20
52575;DHT22;38468;48.114;-1.684;2023-09-12T03:22:09;19.90;80.10
52575;DHT22;38468;48.114;-1.684;2023-09-12T03:24:10;20.00;80.00
52575;DHT22;38468;48.114;-1.684;2023-09-12T03:26:10;20.00;80.00
52575;DHT22;38468;48.114;-1.684;2023-09-12T03:28:11;19.90;80.00
52575;DHT22;38468;48.114;-1.684;2023-09-12T03:30:12;19.90;80.10
52575;DHT22;38468;48.114;-1.684;2023-09-12T03:32:12;19.90;80.20
52575;DHT22;38468;48.114;-1.684;2023-09-12T03:34:13;19.90;80.40
52575;DHT22;38468;48.114;-1.684;2023-09-12T03:36:13;19.80;80.50
52575;DHT22;38468;48.114;-1.684;2023-09-12T03:38:14;19.90;80.50
52575;DHT22;38468;48.114;-1.684;2023-09-12T03:40:15;19.90;80.30
52575;DHT22;38468;48.114;-1.684;2023-09-12T03:42:15;20.00;80.20
52575;DHT22;38468;48.114;-1.684;2023-09-12T03:44:16;19.90;80.50
52575;DHT22;38468;48.114;-1.684;2023-09-12T03:46:16;20.00;80.10
52575;DHT22;38468;48.114;-1.684;2023-09-12T03:48:17;19.90;80.40
52575;DHT22;38468;48.114;-1.684;2023-09-12T03:50:17;19.90;80.30
52575;DHT22;38468;48.114;-1.684;2023-09-12T03:52:18;19.90;80.50
52575;DHT22;38468;48.114;-1.684;2023-09-12T03:54:19;19.80;80.60
52575;DHT22;38468;48.114;-1.684;2023-09-12T03:56:20;19.90;80.50
52575;DHT22;38468;48.114;-1.684;2023-09-12T03:58:21;20.00;80.20
52575;DHT22;38468;48.114;-1.684;2023-09-12T04:00:22;20.00;80.10
52575;DHT22;38468;48.114;-1.684;2023-09-12T04:02:23;19.90;80.10
52575;DHT22;38468;48.114;-1.684;2023-09-12T04:04:23;19.90;80.50
52575;DHT22;38468;48.114;-1.684;2023-09-12T04:06:24;19.80;80.40
52575;DHT22;38468;48.114;-1.684;2023-09-12T04:08:24;19.90;80.20
52575;DHT22;38468;48.114;-1.684;2023-09-12T04:10:25;19.80;80.70
52575;DHT22;38468;48.114;-1.684;2023-09-12T04:12:26;20.00;80.40
52575;DHT22;38468;48.114;-1.684;2023-09-12T04:14:26;19.90;80.50
52575;DHT22;38468;48.114;-1.684;2023-09-12T04:16:27;19.90;80.30
52575;DHT22;38468;48.114;-1.684;2023-09-12T04:18:27;19.90;80.60
52575;DHT22;38468;48.114;-1.684;2023-09-12T04:20:28;19.90;80.40
52575;DHT22;38468;48.114;-1.684;2023-09-12T04:22:29;20.00;80.20
52575;DHT22;38468;48.114;-1.684;2023-09-12T04:24:29;19.90;80.30
52575;DHT22;38468;48.114;-1.684;2023-09-12T04:26:30;19.90;80.50
52575;DHT22;38468;48.114;-1.684;2023-09-12T04:28:30;19.90;80.30
52575;DHT22;38468;48.114;-1.684;2023-09-12T04:30:31;19.90;80.20
52575;DHT22;38468;48.114;-1.684;2023-09-12T04:32:32;19.70;80.70
52575;DHT22;38468;48.114;-1.684;2023-09-12T04:34:32;19.70;80.60
52575;DHT22;38468;48.114;-1.684;2023-09-12T04:36:33;19.90;80.30
52575;DHT22;38468;48.114;-1.684;2023-09-12T04:38:34;19.80;80.30
52575;DHT22;38468;48.114;-1.684;2023-09-12T04:40:34;19.90;80.40
52575;DHT22;38468;48.114;-1.684;2023-09-12T04:42:35;19.90;80.20
52575;DHT22;38468;48.114;-1.684;2023-09-12T04:44:38;19.90;80.50
52575;DHT22;38468;48.114;-1.684;2023-09-12T04:46:39;19.90;80.40
52575;DHT22;38468;48.114;-1.684;2023-09-12T04:48:40;20.00;80.10
52575;DHT22;38468;48.114;-1.684;2023-09-12T04:50:41;20.00;80.00
52575;DHT22;38468;48.114;-1.684;2023-09-12T04:52:42;20.00;80.00
52575;DHT22;38468;48.114;-1.684;2023-09-12T04:54:43;20.00;79.90
52575;DHT22;38468;48.114;-1.684;2023-09-12T04:56:44;20.00;80.00
52575;DHT22;38468;48.114;-1.684;2023-09-12T04:58:44;19.90;80.10
52575;DHT22;38468;48.114;-1.684;2023-09-12T05:00:45;19.90;80.10
52575;DHT22;38468;48.114;-1.684;2023-09-12T05:02:52;19.90;80.40
52575;DHT22;38468;48.114;-1.684;2023-09-12T05:04:53;19.90;80.30
52575;DHT22;38468;48.114;-1.684;2023-09-12T05:06:53;19.90;80.30
52575;DHT22;38468;48.114;-1.684;2023-09-12T05:08:54;19.80;80.60
52575;DHT22;38468;48.114;-1.684;2023-09-12T05:10:55;19.80;80.70
52575;DHT22;38468;48.114;-1.684;2023-09-12T05:12:55;19.70;80.70
52575;DHT22;38468;48.114;-1.684;2023-09-12T05:14:56;19.70;80.80
52575;DHT22;38468;48.114;-1.684;2023-09-12T05:16:57;19.70;81.00
52575;DHT22;38468;48.114;-1.684;2023-09-12T05:18:59;19.80;80.80
52575;DHT22;38468;48.114;-1.684;2023-09-12T05:21:00;19.70;81.00
52575;DHT22;38468;48.114;-1.684;2023-09-12T05:23:01;19.90;80.60
52575;DHT22;38468;48.114;-1.684;2023-09-12T05:25:01;19.80;80.70
52575;DHT22;38468;48.114;-1.684;2023-09-12T05:27:02;19.80;80.80
52575;DHT22;38468;48.114;-1.684;2023-09-12T05:29:03;19.80;80.70
52575;DHT22;38468;48.114;-1.684;2023-09-12T05:31:03;19.80;80.70
52575;DHT22;38468;48.114;-1.684;2023-09-12T05:33:04;19.80;80.80
52575;DHT22;38468;48.114;-1.684;2023-09-12T05:35:05;19.80;80.60
52575;DHT22;38468;48.114;-1.684;2023-09-12T05:37:05;19.80;80.80
52575;DHT22;38468;48.114;-1.684;2023-09-12T05:39:07;19.80;80.70
52575;DHT22;38468;48.114;-1.684;2023-09-12T05:41:07;19.90;80.70
52575;DHT22;38468;48.114;-1.684;2023-09-12T05:43:08;19.80;80.70
52575;DHT22;38468;48.114;-1.684;2023-09-12T05:45:09;19.80;80.90
52575;DHT22;38468;48.114;-1.684;2023-09-12T05:47:09;19.80;80.80
52575;DHT22;38468;48.114;-1.684;2023-09-12T05:49:10;19.80;80.70
52575;DHT22;38468;48.114;-1.684;2023-09-12T05:51:10;19.80;80.50
52575;DHT22;38468;48.114;-1.684;2023-09-12T05:53:12;19.70;80.60
52575;DHT22;38468;48.114;-1.684;2023-09-12T05:55:12;19.70;80.80
52575;DHT22;38468;48.114;-1.684;2023-09-12T05:57:13;19.70;80.60
52575;DHT22;38468;48.114;-1.684;2023-09-12T05:59:13;19.70;80.40
52575;DHT22;38468;48.114;-1.684;2023-09-12T06:01:14;19.50;80.70
52575;DHT22;38468;48.114;-1.684;2023-09-12T06:03:15;19.60;80.80
52575;DHT22;38468;48.114;-1.684;2023-09-12T06:05:16;19.60;80.80
52575;DHT22;38468;48.114;-1.684;2023-09-12T06:07:17;19.60;80.60
52575;DHT22;38468;48.114;-1.684;2023-09-12T06:09:17;19.50;80.40
52575;DHT22;38468;48.114;-1.684;2023-09-12T06:11:18;19.50;80.70
52575;DHT22;38468;48.114;-1.684;2023-09-12T06:13:19;19.50;80.80
52575;DHT22;38468;48.114;-1.684;2023-09-12T06:15:20;19.40;81.10
52575;DHT22;38468;48.114;-1.684;2023-09-12T06:17:20;19.50;81.00
52575;DHT22;38468;48.114;-1.684;2023-09-12T06:19:21;19.60;81.10
52575;DHT22;38468;48.114;-1.684;2023-09-12T06:21:22;19.60;80.90
52575;DHT22;38468;48.114;-1.684;2023-09-12T06:23:22;19.70;80.90
52575;DHT22;38468;48.114;-1.684;2023-09-12T06:25:24;19.60;80.50
52575;DHT22;38468;48.114;-1.684;2023-09-12T06:27:25;19.60;80.60
52575;DHT22;38468;48.114;-1.684;2023-09-12T06:29:26;19.70;80.50
52575;DHT22;38468;48.114;-1.684;2023-09-12T06:31:26;19.60;80.90
52575;DHT22;38468;48.114;-1.684;2023-09-12T06:33:27;19.60;80.70
52575;DHT22;38468;48.114;-1.684;2023-09-12T06:35:28;19.60;80.60
52575;DHT22;38468;48.114;-1.684;2023-09-12T06:37:29;19.50;80.90
52575;DHT22;38468;48.114;-1.684;2023-09-12T06:39:29;19.60;80.70
52575;DHT22;38468;48.114;-1.684;2023-09-12T06:41:30;19.50;80.90
52575;DHT22;38468;48.114;-1.684;2023-09-12T06:43:31;19.70;81.10
52575;DHT22;38468;48.114;-1.684;2023-09-12T06:45:31;19.80;80.60
52575;DHT22;38468;48.114;-1.684;2023-09-12T06:47:33;19.80;80.70
52575;DHT22;38468;48.114;-1.684;2023-09-12T06:49:34;19.80;80.50
52575;DHT22;38468;48.114;-1.684;2023-09-12T06:51:36;19.80;80.40
52575;DHT22;38468;48.114;-1.684;2023-09-12T06:53:37;19.70;80.70
52575;DHT22;38468;48.114;-1.684;2023-09-12T06:55:37;19.90;80.50
52575;DHT22;38468;48.114;-1.684;2023-09-12T06:57:38;19.90;80.40
52575;DHT22;38468;48.114;-1.684;2023-09-12T06:59:39;20.00;80.00
52575;DHT22;38468;48.114;-1.684;2023-09-12T07:01:40;19.90;80.30
52575;DHT22;38468;48.114;-1.684;2023-09-12T07:03:41;19.90;80.30
52575;DHT22;38468;48.114;-1.684;2023-09-12T07:05:41;19.80;80.30
52575;DHT22;38468;48.114;-1.684;2023-09-12T07:07:42;19.70;80.30
52575;DHT22;38468;48.114;-1.684;2023-09-12T07:09:42;19.80;80.60
52575;DHT22;38468;48.114;-1.684;2023-09-12T07:11:43;20.00;80.40
52575;DHT22;38468;48.114;-1.684;2023-09-12T07:13:45;19.90;80.30
52575;DHT22;38468;48.114;-1.684;2023-09-12T07:15:45;20.00;80.30
52575;DHT22;38468;48.114;-1.684;2023-09-12T07:17:49;20.00;80.40
52575;DHT22;38468;48.114;-1.684;2023-09-12T07:19:50;20.00;80.00
52575;DHT22;38468;48.114;-1.684;2023-09-12T07:21:51;20.00;80.30
52575;DHT22;38468;48.114;-1.684;2023-09-12T07:23:52;20.00;80.40
52575;DHT22;38468;48.114;-1.684;2023-09-12T07:25:53;20.00;80.10
52575;DHT22;38468;48.114;-1.684;2023-09-12T07:27:55;20.00;80.10
52575;DHT22;38468;48.114;-1.684;2023-09-12T07:29:56;20.00;80.20
52575;DHT22;38468;48.114;-1.684;2023-09-12T07:31:56;20.00;80.00
52575;DHT22;38468;48.114;-1.684;2023-09-12T07:33:57;20.00;80.20
52575;DHT22;38468;48.114;-1.684;2023-09-12T07:35:58;20.00;80.20
52575;DHT22;38468;48.114;-1.684;2023-09-12T07:37:59;20.10;80.30
52575;DHT22;38468;48.114;-1.684;2023-09-12T07:40:00;20.10;80.00
52575;DHT22;38468;48.114;-1.684;2023-09-12T07:42:01;20.10;79.70
52575;DHT22;38468;48.114;-1.684;2023-09-12T07:44:03;20.10;79.90
52575;DHT22;38468;48.114;-1.684;2023-09-12T07:46:05;20.20;79.90
52575;DHT22;38468;48.114;-1.684;2023-09-12T07:48:09;20.30;79.70
52575;DHT22;38468;48.114;-1.684;2023-09-12T07:50:11;20.30;79.50
52575;DHT22;38468;48.114;-1.684;2023-09-12T07:52:12;20.20;79.60
52575;DHT22;38468;48.114;-1.684;2023-09-12T07:54:12;20.20;79.90
52575;DHT22;38468;48.114;-1.684;2023-09-12T07:56:13;20.20;79.80
52575;DHT22;38468;48.114;-1.684;2023-09-12T07:58:17;20.20;79.90
52575;DHT22;38468;48.114;-1.684;2023-09-12T08:00:27;20.20;79.80
52575;DHT22;38468;48.114;-1.684;2023-09-12T08:02:28;20.30;80.00
52575;DHT22;38468;48.114;-1.684;2023-09-12T08:04:29;20.30;79.90
52575;DHT22;38468;48.114;-1.684;2023-09-12T08:06:29;20.40;79.80
52575;DHT22;38468;48.114;-1.684;2023-09-12T08:08:31;20.40;79.60
52575;DHT22;38468;48.114;-1.684;2023-09-12T08:10:31;20.50;79.30
52575;DHT22;38468;48.114;-1.684;2023-09-12T08:12:32;20.50;79.50
52575;DHT22;38468;48.114;-1.684;2023-09-12T08:14:33;20.50;79.30
52575;DHT22;38468;48.114;-1.684;2023-09-12T08:16:33;20.70;79.30
52575;DHT22;38468;48.114;-1.684;2023-09-12T08:18:34;20.80;78.90
52575;DHT22;38468;48.114;-1.684;2023-09-12T08:20:34;20.90;78.90
52575;DHT22;38468;48.114;-1.684;2023-09-12T08:22:36;21.00;79.00
52575;DHT22;38468;48.114;-1.684;2023-09-12T08:24:37;21.10;78.40
52575;DHT22;38468;48.114;-1.684;2023-09-12T08:26:39;21.30;78.10
52575;DHT22;38468;48.114;-1.684;2023-09-12T08:28:40;21.30;78.00
52575;DHT22;38468;48.114;-1.684;2023-09-12T08:30:41;21.30;77.80
52575;DHT22;38468;48.114;-1.684;2023-09-12T08:32:41;21.50;77.90
52575;DHT22;38468;48.114;-1.684;2023-09-12T08:34:45;21.60;77.70
52575;DHT22;38468;48.114;-1.684;2023-09-12T08:36:45;21.80;77.20
52575;DHT22;38468;48.114;-1.684;2023-09-12T08:38:46;21.70;76.70
52575;DHT22;38468;48.114;-1.684;2023-09-12T08:40:50;21.70;76.60
52575;DHT22;38468;48.114;-1.684;2023-09-12T08:42:52;21.60;77.00
52575;DHT22;38468;48.114;-1.684;2023-09-12T08:44:53;21.60;76.60
52575;DHT22;38468;48.114;-1.684;2023-09-12T08:46:53;21.80;77.10
52575;DHT22;38468;48.114;-1.684;2023-09-12T08:48:57;22.00;76.30
52575;DHT22;38468;48.114;-1.684;2023-09-12T08:50:59;22.20;75.70
52575;DHT22;38468;48.114;-1.684;2023-09-12T08:53:01;22.50;75.40
52575;DHT22;38468;48.114;-1.684;2023-09-12T08:55:02;22.80;75.10
52575;DHT22;38468;48.114;-1.684;2023-09-12T08:57:05;22.90;73.60
52575;DHT22;38468;48.114;-1.684;2023-09-12T08:59:06;23.00;73.20
52575;DHT22;38468;48.114;-1.684;2023-09-12T09:01:07;23.00;72.90
52575;DHT22;38468;48.114;-1.684;2023-09-12T09:03:11;23.20;73.80
52575;DHT22;38468;48.114;-1.684;2023-09-12T09:05:12;23.40;71.90
52575;DHT22;38468;48.114;-1.684;2023-09-12T09:07:13;23.40;71.30
52575;DHT22;38468;48.114;-1.684;2023-09-12T09:09:15;23.50;70.20
52575;DHT22;38468;48.114;-1.684;2023-09-12T09:11:16;23.60;70.40
52575;DHT22;38468;48.114;-1.684;2023-09-12T09:13:17;23.90;68.90
52575;DHT22;38468;48.114;-1.684;2023-09-12T09:17:23;24.20;68.00
52575;DHT22;38468;48.114;-1.684;2023-09-12T09:19:40;24.30;67.50
52575;DHT22;38468;48.114;-1.684;2023-09-12T09:21:41;24.20;67.80
52575;DHT22;38468;48.114;-1.684;2023-09-12T09:23:45;24.50;67.80
52575;DHT22;38468;48.114;-1.684;2023-09-12T09:25:52;24.60;66.40
52575;DHT22;38468;48.114;-1.684;2023-09-12T09:27:54;24.80;66.70
52575;DHT22;38468;48.114;-1.684;2023-09-12T09:29:55;24.90;66.20
52575;DHT22;38468;48.114;-1.684;2023-09-12T09:31:55;25.00;66.00
52575;DHT22;38468;48.114;-1.684;2023-09-12T09:33:56;24.80;66.40
52575;DHT22;38468;48.114;-1.684;2023-09-12T09:36:06;24.80;66.00
52575;DHT22;38468;48.114;-1.684;2023-09-12T09:38:07;24.90;65.50
52575;DHT22;38468;48.114;-1.684;2023-09-12T09:40:09;25.00;65.70
52575;DHT22;38468;48.114;-1.684;2023-09-12T09:42:10;25.00;65.20
52575;DHT22;38468;48.114;-1.684;2023-09-12T09:44:12;24.80;65.50
52575;DHT22;38468;48.114;-1.684;2023-09-12T09:46:17;24.30;66.40
52575;DHT22;38468;48.114;-1.684;2023-09-12T09:48:22;24.40;66.80
52575;DHT22;38468;48.114;-1.684;2023-09-12T09:50:23;24.50;67.60
52575;DHT22;38468;48.114;-1.684;2023-09-12T09:52:27;24.60;66.40
52575;DHT22;38468;48.114;-1.684;2023-09-12T09:54:28;24.70;65.60
52575;DHT22;38468;48.114;-1.684;2023-09-12T09:56:28;24.50;66.30
52575;DHT22;38468;48.114;-1.684;2023-09-12T09:58:30;24.50;66.00
52575;DHT22;38468;48.114;-1.684;2023-09-12T10:00:33;24.60;67.00
52575;DHT22;38468;48.114;-1.684;2023-09-12T10:02:35;24.70;65.90
52575;DHT22;38468;48.114;-1.684;2023-09-12T10:04:38;24.60;65.50
52575;DHT22;38468;48.114;-1.684;2023-09-12T10:06:39;24.50;66.00
52575;DHT22;38468;48.114;-1.684;2023-09-12T10:08:44;24.40;66.10
52575;DHT22;38468;48.114;-1.684;2023-09-12T10:10:46;24.50;66.30
52575;DHT22;38468;48.114;-1.684;2023-09-12T10:12:57;24.40;66.20
52575;DHT22;38468;48.114;-1.684;2023-09-12T10:15:00;24.50;66.50
52575;DHT22;38468;48.114;-1.684;2023-09-12T10:17:02;24.40;67.10
52575;DHT22;38468;48.114;-1.684;2023-09-12T10:19:23;24.50;66.50
52575;DHT22;38468;48.114;-1.684;2023-09-12T10:21:29;24.60;66.30
52575;DHT22;38468;48.114;-1.684;2023-09-12T10:25:37;25.00;65.50
52575;DHT22;38468;48.114;-1.684;2023-09-12T10:27:38;25.00;64.10
52575;DHT22;38468;48.114;-1.684;2023-09-12T10:29:39;25.00;64.00
52575;DHT22;38468;48.114;-1.684;2023-09-12T10:31:40;25.20;64.00
52575;DHT22;38468;48.114;-1.684;2023-09-12T10:33:41;25.40;63.80
52575;DHT22;38468;48.114;-1.684;2023-09-12T10:35:45;25.60;64.20
52575;DHT22;38468;48.114;-1.684;2023-09-12T10:37:49;26.00;63.40
52575;DHT22;38468;48.114;-1.684;2023-09-12T10:39:53;26.20;62.20
52575;DHT22;38468;48.114;-1.684;2023-09-12T10:41:54;26.40;61.60
52575;DHT22;38468;48.114;-1.684;2023-09-12T10:43:58;26.50;61.20
52575;DHT22;38468;48.114;-1.684;2023-09-12T10:46:01;26.70;61.00
52575;DHT22;38468;48.114;-1.684;2023-09-12T10:48:04;26.80;59.10
52575;DHT22;38468;48.114;-1.684;2023-09-12T10:50:06;26.60;59.00
52575;DHT22;38468;48.114;-1.684;2023-09-12T10:52:07;26.40;57.90
52575;DHT22;38468;48.114;-1.684;2023-09-12T10:54:09;26.30;59.00
52575;DHT22;38468;48.114;-1.684;2023-09-12T10:58:13;26.00;59.60
52575;DHT22;38468;48.114;-1.684;2023-09-12T11:00:14;26.10;59.70
52575;DHT22;38468;48.114;-1.684;2023-09-12T11:06:30;26.50;58.90
52575;DHT22;38468;48.114;-1.684;2023-09-12T11:08:36;26.40;59.00
52575;DHT22;38468;48.114;-1.684;2023-09-12T11:10:38;26.30;59.20
52575;DHT22;38468;48.114;-1.684;2023-09-12T11:12:39;26.10;59.80
52575;DHT22;38468;48.114;-1.684;2023-09-12T11:15:03;26.00;59.10
52575;DHT22;38468;48.114;-1.684;2023-09-12T11:19:18;25.80;59.60
52575;DHT22;38468;48.114;-1.684;2023-09-12T11:21:31;26.00;59.60
52575;DHT22;38468;48.114;-1.684;2023-09-12T11:23:32;26.00;59.40
52575;DHT22;38468;48.114;-1.684;2023-09-12T11:25:35;26.10;58.80
52575;DHT22;38468;48.114;-1.684;2023-09-12T11:29:52;25.90;58.60
52575;DHT22;38468;48.114;-1.684;2023-09-12T11:31:57;25.70;59.00
52575;DHT22;38468;48.114;-1.684;2023-09-12T11:34:00;25.50;59.40
52575;DHT22;38468;48.114;-1.684;2023-09-12T11:36:01;25.60;58.90
52575;DHT22;38468;48.114;-1.684;2023-09-12T11:38:04;25.50;59.20
52575;DHT22;38468;48.114;-1.684;2023-09-12T11:42:14;25.30;59.70
52575;DHT22;38468;48.114;-1.684;2023-09-12T11:44:15;25.40;59.60
52575;DHT22;38468;48.114;-1.684;2023-09-12T11:46:17;25.50;60.20
52575;DHT22;38468;48.114;-1.684;2023-09-12T11:48:18;25.60;59.80
52575;DHT22;38468;48.114;-1.684;2023-09-12T11:50:33;25.70;59.30
52575;DHT22;38468;48.114;-1.684;2023-09-12T11:52:36;25.30;60.20
52575;DHT22;38468;48.114;-1.684;2023-09-12T11:54:41;25.40;61.20
52575;DHT22;38468;48.114;-1.684;2023-09-12T11:56:42;25.50;60.70
52575;DHT22;38468;48.114;-1.684;2023-09-12T11:58:43;25.50;60.80
52575;DHT22;38468;48.114;-1.684;2023-09-12T12:00:51;25.80;60.50
52575;DHT22;38468;48.114;-1.684;2023-09-12T12:02:54;25.90;59.20
52575;DHT22;38468;48.114;-1.684;2023-09-12T12:04:54;25.90;59.80
52575;DHT22;38468;48.114;-1.684;2023-09-12T12:06:57;25.70;60.20
52575;DHT22;38468;48.114;-1.684;2023-09-12T12:08:58;25.60;60.40
52575;DHT22;38468;48.114;-1.684;2023-09-12T12:10:59;25.80;60.40
52575;DHT22;38468;48.114;-1.684;2023-09-12T12:13:00;26.00;59.50
52575;DHT22;38468;48.114;-1.684;2023-09-12T12:15:01;26.20;59.20
52575;DHT22;38468;48.114;-1.684;2023-09-12T12:17:08;26.20;58.70
52575;DHT22;38468;48.114;-1.684;2023-09-12T12:19:10;26.30;58.30
52575;DHT22;38468;48.114;-1.684;2023-09-12T12:21:12;26.40;58.30
52575;DHT22;38468;48.114;-1.684;2023-09-12T12:23:12;26.20;58.30
52575;DHT22;38468;48.114;-1.684;2023-09-12T12:25:14;26.10;58.50
52575;DHT22;38468;48.114;-1.684;2023-09-12T12:27:15;26.20;58.70
52575;DHT22;38468;48.114;-1.684;2023-09-12T12:29:15;26.20;58.90
52575;DHT22;38468;48.114;-1.684;2023-09-12T12:31:16;26.30;58.40
52575;DHT22;38468;48.114;-1.684;2023-09-12T12:33:17;26.40;58.10
52575;DHT22;38468;48.114;-1.684;2023-09-12T12:35:19;26.40;57.40
52575;DHT22;38468;48.114;-1.684;2023-09-12T12:37:19;26.00;58.40
52575;DHT22;38468;48.114;-1.684;2023-09-12T12:39:23;25.90;59.20
52575;DHT22;38468;48.114;-1.684;2023-09-12T12:41:28;26.00;59.30
52575;DHT22;38468;48.114;-1.684;2023-09-12T12:43:30;26.00;59.50
52575;DHT22;38468;48.114;-1.684;2023-09-12T12:45:31;25.90;59.70
52575;DHT22;38468;48.114;-1.684;2023-09-12T12:47:33;26.00;59.30
52575;DHT22;38468;48.114;-1.684;2023-09-12T12:49:37;26.20;59.60
52575;DHT22;38468;48.114;-1.684;2023-09-12T12:51:42;26.50;58.00
52575;DHT22;38468;48.114;-1.684;2023-09-12T12:53:46;26.70;57.60
52575;DHT22;38468;48.114;-1.684;2023-09-12T12:55:48;26.90;57.00
52575;DHT22;38468;48.114;-1.684;2023-09-12T12:57:49;26.80;56.40
52575;DHT22;38468;48.114;-1.684;2023-09-12T12:59:50;26.90;56.60